Terminal Aerodrome Forecast
Issued by NWS Buffalo, NY

Home | Current Version | Previous Version | Text Only | Print | Product List | Glossary On
Versions: 1 2 3 4 5 6 7 8 9 10 11 12 13 14 15 16 17 18 19 20 21 22 23 24 25 26 27 28 29 30 31 32 33
000
FTUS41 KBUF 210200 AAB
TAFROC
TAF AMD
KROC 210259Z 2103/2124 18007KT 6SM -SHRA OVC035
     FM210600 14007KT 6SM -SHRA OVC025
     FM211400 08005KT 4SM -SHRA OVC012
     FM211700 05008KT 4SM -SHRA OVC006
     FM212000 03012KT 5SM -SHRA OVC008
     FM212300 03015KT 5SM -SHRA OVC012=

USA.gov is the U.S. government's official web portal to all federal, state and local government web resources and services.